Latest Weather Observations for Redesdale

IDV60801

Issued at 6:05 am EST Sunday 21 September 2014 (issued every 30 minutes, with the page automatically refreshed every 10 minutes)

About weather observations | Map of weather stations | Latest weather observations for VIC | Other Formats
Station Details ID: 088051 Name: REDESDALE Lat: -37.02 Lon: 144.52 Height: 290.0 m
Data from the previous 72 hours. | See also: Recent months at Redesdale
Date/Time
EST
Temp
°C
App
Temp
°C
Dew
Point
Rel
Hum
%
Delta-T
°C
Wind Press
QNH
hPa
Press
MSL
hPa
Rain
since 9 am
mm
Dir
 
Spd
km/h
Gust
km/h
Spd
kts
Gust
kts
21/06:00am 5.8 1.9 3.5 85 1.0 S 13 19 7 10 - - 0.0
21/05:30am 6.7 1.8 4.2 84 1.1 S 19 24 10 13 - - 0.0
21/05:00am 6.5 2.3 4.0 84 1.1 S 15 19 8 10 - - 0.0
21/04:30am 7.0 2.1 4.3 83 1.2 S 19 22 10 12 - - 0.0
21/04:00am 7.3 1.5 4.3 81 1.3 S 24 33 13 18 - - 0.0
21/03:30am 5.6 1.5 4.1 90 0.6 S 15 20 8 11 - - 0.0
21/03:00am 3.9 0.3 2.9 93 0.4 SSW 11 15 6 8 - - 0.0
21/02:30am 2.5 -1.0 1.5 93 0.4 SW 9 13 5 7 - - 0.0
21/02:00am 3.6 0.3 2.6 93 0.4 SW 9 13 5 7 - - 0.0
21/01:30am 4.4 0.6 3.7 95 0.3 SSW 13 15 7 8 - - 0.0
21/01:00am 4.4 1.0 4.1 98 0.1 S 11 15 6 8 - - 0.0
21/12:30am 1.3 -3.0 0.9 97 0.2 SW 13 15 7 8 - - 0.0
21/12:00am 0.9 -2.4 0.3 96 0.2 SSW 7 9 4 5 - - 0.0
 
Date/Time
EST
Temp
°C
App
Temp
°C
Dew
Point
Rel
Hum
%
Delta-T
°C
Wind Press
QNH
hPa
Press
MSL
hPa
Rain
since 9 am
mm
Dir
 
Spd
km/h
Gust
km/h
Spd
kts
Gust
kts
20/11:30pm 1.6 -1.6 0.9 95 0.3 SW 7 9 4 5 - - 0.0
20/11:00pm 2.7 -0.1 2.0 95 0.3 SW 6 7 3 4 - - 0.0
20/10:30pm 2.9 -0.1 2.0 94 0.4 SSW 7 9 4 5 - - 0.0
20/10:00pm 4.0 1.3 2.8 92 0.5 SSW 6 7 3 4 - - 0.0
20/09:30pm 4.7 1.9 3.0 89 0.7 SSW 7 9 4 5 - - 0.0
20/09:00pm 5.2 2.1 3.5 89 0.7 SSW 9 15 5 8 - - 0.0
20/08:30pm 6.6 3.3 4.3 85 1.0 S 11 15 6 8 - - 0.0
20/08:00pm 6.4 3.0 3.9 84 1.1 S 11 13 6 7 - - 0.0
20/07:30pm 8.5 4.2 5.3 80 1.5 S 17 24 9 13 - - 0.0
20/07:00pm 9.6 5.1 4.4 70 2.3 S 17 28 9 15 - - 0.0
20/06:30pm 10.5 6.4 4.6 67 2.7 SSE 15 20 8 11 - - 0.0
20/06:00pm 11.4 7.0 4.6 63 3.1 S 17 22 9 12 - - 0.0
20/05:30pm 12.6 6.1 4.8 59 3.6 S 28 37 15 20 - - 0.0
20/05:00pm 13.3 8.3 4.7 56 4.0 S 20 26 11 14 - - 0.0
20/04:30pm 14.2 9.4 5.6 56 4.1 S 20 30 11 16 - - 0.0
20/04:00pm 15.0 10.0 6.3 56 4.3 S 22 32 12 17 - - 0.0
20/03:30pm 15.5 10.8 6.2 54 4.6 S 20 30 11 16 - - 0.0
20/03:00pm 13.8 9.0 4.4 53 4.4 S 19 30 10 16 - - 0.0
20/02:30pm 15.2 10.4 5.7 53 4.6 S 20 33 11 18 - - 0.0
20/02:00pm 14.1 8.9 5.7 57 4.0 S 22 35 12 19 - - 0.0
20/01:30pm 15.3 10.6 6.1 54 4.5 S 20 32 11 17 - - 0.0
20/01:00pm 14.7 10.4 5.2 53 4.5 S 17 24 9 13 - - 0.0
20/12:30pm 15.2 11.3 7.3 59 4.0 S 17 30 9 16 - - 0.0
20/12:00pm 13.8 9.2 5.4 57 4.0 SSW 19 22 10 12 - - 0.0
20/11:30am 15.0 11.2 5.8 54 4.5 SSE 15 26 8 14 - - 0.0
20/11:00am 13.9 9.4 6.0 59 3.8 SSE 19 28 10 15 - - 0.0
20/10:30am 14.6 10.0 6.4 58 4.0 S 20 32 11 17 - - 0.0
20/10:00am 14.5 9.7 5.8 56 4.2 SSE 20 37 11 20 - - 0.0
20/09:30am 13.8 8.4 6.2 60 3.7 SSE 24 33 13 18 - - 0.0
20/09:00am 11.9 6.4 6.0 67 2.8 S 24 35 13 19 - - 0.0
20/08:30am 10.0 7.8 5.4 73 2.1 WSW 6 9 3 5 - - 0.0
20/08:00am 8.4 6.2 5.3 81 1.4 SW 6 11 3 6 - - 0.0
20/07:30am 5.0 2.8 3.3 89 0.7 SSW 4 6 2 3 - - 0.0
20/07:00am 2.0 -1.0 1.0 93 0.4 SW 6 7 3 4 - - 0.0
20/06:30am 0.4 -2.8 -0.5 94 0.3 SW 6 7 3 4 - - 0.0
20/06:00am 0.9 -1.9 -0.2 92 0.4 SW 4 7 2 4 - - 0.0
20/05:30am 0.9 -1.9 -0.1 93 0.4 SW 4 6 2 3 - - 0.0
20/05:00am 2.0 -1.2 0.7 91 0.5 SW 7 9 4 5 - - 0.0
20/04:30am 2.5 -0.4 1.3 92 0.5 SSW 6 9 3 5 - - 0.0
20/04:00am 2.8 -0.6 1.6 92 0.5 SW 9 13 5 7 - - 0.0
20/03:30am 2.8 -0.2 2.1 95 0.3 SSW 7 9 4 5 - - 0.0
20/03:00am 3.0 -0.4 2.1 94 0.4 SSW 9 11 5 6 - - 0.0
20/02:30am 3.4 -0.3 2.5 94 0.4 SW 11 13 6 7 - - 0.0
20/02:00am 3.1 0.1 2.2 94 0.4 SW 7 9 4 5 - - 0.0
20/01:30am 3.4 -0.3 2.4 93 0.4 SW 11 13 6 7 - - 0.0
20/01:00am 4.0 0.8 2.8 92 0.5 SSW 9 11 5 6 - - 0.0
20/12:30am 5.3 1.9 3.8 90 0.6 S 11 15 6 8 - - 0.0
20/12:00am 5.2 2.2 3.9 91 0.6 SSW 9 13 5 7 - - 0.0
 
Date/Time
EST
Temp
°C
App
Temp
°C
Dew
Point
Rel
Hum
%
Delta-T
°C
Wind Press
QNH
hPa
Press
MSL
hPa
Rain
since 9 am
mm
Dir
 
Spd
km/h
Gust
km/h
Spd
kts
Gust
kts
19/11:30pm 5.6 2.7 4.4 92 0.5 SW 9 11 5 6 - - 0.0
19/11:00pm 6.3 3.1 5.3 93 0.4 S 11 15 6 8 - - 0.0
19/10:30pm 6.0 3.1 4.6 91 0.6 S 9 11 5 6 - - 0.0
19/10:00pm 6.5 2.9 5.0 90 0.7 S 13 15 7 8 - - 0.0
19/09:30pm 6.8 3.6 5.3 90 0.7 S 11 15 6 8 - - 0.0
19/09:00pm 7.7 4.6 5.7 87 0.9 S 11 15 6 8 - - 0.0
19/08:30pm 7.0 3.8 5.3 89 0.8 S 11 15 6 8 - - 0.0
19/08:00pm 7.5 5.0 5.0 84 1.1 S 7 11 4 6 - - 0.0
19/07:30pm 8.2 5.7 4.8 79 1.5 SW 7 9 4 5 - - 0.0
19/07:00pm 8.5 5.6 4.7 77 1.7 S 9 13 5 7 - - 0.0
19/06:30pm 9.5 6.3 4.9 73 2.1 S 11 13 6 7 - - 0.0
19/06:00pm 10.5 7.3 4.9 68 2.6 S 11 15 6 8 - - 0.0
19/05:30pm 12.2 7.7 4.4 59 3.6 S 17 26 9 14 - - 0.0
19/05:00pm 12.4 8.4 2.8 52 4.3 SSW 13 24 7 13 - - 0.0
19/04:30pm 15.3 11.1 3.8 46 5.4 S 15 22 8 12 - - 0.0
19/04:00pm 14.9 10.1 2.8 44 5.5 S 17 24 9 13 - - 0.0
19/03:30pm 14.2 9.1 2.8 46 5.2 S 19 28 10 15 - - 0.0
19/03:00pm 13.5 8.8 3.3 50 4.6 SSW 17 26 9 14 - - 0.0
19/02:30pm 13.9 9.2 3.1 48 4.9 SSW 17 28 9 15 - - 0.0
19/02:00pm 14.4 9.4 3.8 49 4.9 SSW 19 33 10 18 - - 0.0
19/01:30pm 14.8 11.1 4.5 50 4.9 SSW 13 24 7 13 - - 0.0
19/01:00pm 15.2 11.5 4.6 49 5.0 SSW 13 30 7 16 - - 0.0
19/12:30pm 15.0 11.8 5.2 52 4.7 SSW 11 24 6 13 - - 0.0
19/12:00pm 13.1 8.9 4.0 54 4.2 SSW 15 24 8 13 - - 0.0
19/11:30am 13.3 8.9 4.7 56 4.0 S 17 30 9 16 - - 0.0
19/11:00am 14.0 9.7 5.4 56 4.1 S 17 22 9 12 - - 0.0
19/10:30am 14.1 9.9 5.7 57 4.0 S 17 28 9 15 - - 0.0
19/10:00am 12.2 7.8 4.9 61 3.4 S 17 28 9 15 - - 0.0
19/09:30am 11.4 9.3 5.9 69 2.6 SSW 6 13 3 7 - - 0.0
19/09:00am 9.7 7.4 5.5 75 1.9 WSW 7 11 4 6 - - 0.0
19/08:30am 8.5 6.3 5.3 80 1.5 WSW 6 11 3 6 - - 0.0
19/08:00am 6.2 4.5 3.9 85 1.0 S 2 4 1 2 - - 0.0
19/07:30am 3.0 1.0 2.3 95 0.3 SSW 2 4 1 2 - - 0.0
19/07:00am 0.1 -3.3 -0.5 96 0.2 SSW 7 9 4 5 - - 0.0
19/06:30am -1.6 -5.0 -2.4 94 0.2 SSW 6 7 3 4 - - 0.0
19/06:00am -0.6 -4.5 -1.4 94 0.3 S 9 11 5 6 - - 0.0
19/05:30am -0.9 -4.9 -2.2 91 0.4 S 9 9 5 5 - - 0.0
19/05:00am 0.0 -3.8 -0.7 95 0.3 S 9 11 5 6 - - 0.0
19/04:30am -0.5 -4.4 -1.3 94 0.3 SSW 9 11 5 6 - - 0.0
19/04:00am 0.1 -3.7 -0.7 94 0.3 SSW 9 11 5 6 - - 0.0
19/03:30am 0.6 -2.6 -0.4 93 0.4 SW 6 7 3 4 - - 0.0
19/03:00am 2.0 -1.0 0.7 91 0.5 SW 6 7 3 4 - - 0.0
19/02:30am 2.4 -1.2 0.9 90 0.6 SSW 9 13 5 7 - - 0.0
19/02:00am 2.7 -1.5 1.5 92 0.5 S 13 17 7 9 - - 0.0
19/01:30am 2.0 -1.0 1.1 94 0.3 SSW 6 7 3 4 - - 0.0
19/01:00am 1.8 -2.5 0.8 93 0.4 SSW 13 15 7 8 - - 0.0
19/12:30am 2.5 -1.8 1.3 92 0.5 SSW 13 15 7 8 - - 0.0
19/12:00am 3.1 -1.4 1.9 92 0.5 S 15 19 8 10 - - 0.0
 
Date/Time
EST
Temp
°C
App
Temp
°C
Dew
Point
Rel
Hum
%
Delta-T
°C
Wind Press
QNH
hPa
Press
MSL
hPa
Rain
since 9 am
mm
Dir
 
Spd
km/h
Gust
km/h
Spd
kts
Gust
kts
18/11:30pm 2.9 -0.5 1.9 93 0.4 SSW 9 11 5 6 - - 0.0
18/11:00pm 2.8 -0.3 1.6 92 0.5 SSW 7 11 4 6 - - 0.0
18/10:30pm 4.0 1.4 3.0 93 0.4 SSW 6 9 3 5 - - 0.0
18/10:00pm 2.8 -0.7 1.2 89 0.6 S 9 11 5 6 - - 0.0
18/09:30pm 4.7 1.1 3.0 89 0.7 S 11 13 6 7 - - 0.0
18/09:00pm 5.2 1.7 3.5 89 0.7 S 11 15 6 8 - - 0.0
18/08:30pm 5.9 2.2 4.2 89 0.7 S 13 17 7 9 - - 0.0
18/08:00pm 6.3 3.0 4.5 88 0.8 S 11 13 6 7 - - 0.0
18/07:30pm 6.8 4.3 4.5 85 1.0 S 7 11 4 6 - - 0.0
18/07:00pm 6.4 2.9 3.6 82 1.2 S 11 15 6 8 - - 0.0
18/06:30pm 7.8 4.3 3.5 74 1.9 S 11 17 6 9 - - 0.0
18/06:00pm 8.7 5.7 3.9 72 2.1 S 9 13 5 7 - - 0.0
18/05:30pm 10.6 7.3 4.7 67 2.7 SSE 11 15 6 8 - - 0.0
18/05:00pm 10.8 7.1 4.5 65 2.9 SSE 13 20 7 11 - - 0.0
18/04:30pm 13.9 10.2 4.5 53 4.4 SW 13 20 7 11 - - 0.0
18/04:00pm 14.5 10.2 3.3 47 5.1 SSW 15 20 8 11 - - 0.0
18/03:30pm 14.0 9.9 4.3 52 4.5 SW 15 24 8 13 - - 0.0
18/03:00pm 13.4 9.2 1.4 44 5.2 SSW 13 20 7 11 - - 0.0
18/02:30pm 12.8 8.0 2.4 49 4.6 SSW 17 26 9 14 - - 0.0
18/02:00pm 13.0 7.7 2.0 47 4.8 SSW 19 28 10 15 - - 0.0
18/01:30pm 14.4 10.1 1.0 40 5.8 SSW 13 26 7 14 - - 0.0
18/01:00pm 13.4 8.9 2.3 47 4.9 SW 15 24 8 13 - - 0.0
18/12:30pm 13.8 9.1 3.0 48 4.9 S 17 26 9 14 - - 0.0
18/12:00pm 13.9 9.6 3.4 49 4.8 SSW 15 26 8 14 - - 0.0
18/11:30am 11.7 7.0 3.2 56 3.8 S 17 26 9 14 - - 0.0
18/11:00am 12.5 8.6 3.2 53 4.2 SSW 13 22 7 12 - - 0.0
18/10:30am 12.0 6.8 2.2 51 4.3 SW 19 30 10 16 - - 0.0
18/10:00am 12.5 7.7 4.7 59 3.6 SSW 19 32 10 17 - - 0.0
18/09:30am 11.9 7.1 4.9 62 3.3 SSW 19 30 10 16 - - 0.0
18/09:00am 10.5 5.1 4.4 66 2.8 SSW 22 32 12 17 - - 0.2
18/08:30am 8.8 6.1 5.4 79 1.6 SW 9 15 5 8 - - 0.2
18/08:00am 7.9 5.1 5.0 82 1.3 WSW 9 13 5 7 - - 0.2
18/07:30am 6.5 4.3 5.5 93 0.5 SW 6 9 3 5 - - 0.2
18/07:00am 3.7 1.1 3.1 96 0.2 SW 6 7 3 4 - - 0.2
18/06:30am 2.9 0.5 2.3 96 0.2 SW 4 7 2 4 - - 0.2

Other Formats:

Comma delimited format used in spreadsheet applications
http://www.bom.gov.au/fwo/IDV60801/IDV60801.94859.axf

JavaScript Object Notation format (JSON) in row-major order
http://www.bom.gov.au/fwo/IDV60801/IDV60801.94859.json